createdAt,value
2022-10-29T05:01:10.056Z,11.68
2022-10-29T05:03:38.614Z,11.13
2022-10-29T05:06:06.692Z,10.80
2022-10-29T05:08:34.450Z,12.30
2022-10-29T05:11:05.479Z,14.18
2022-10-29T05:13:33.762Z,13.68
2022-10-29T05:16:01.291Z,13.88
2022-10-29T05:18:28.590Z,12.82
2022-10-29T05:20:56.285Z,13.02
2022-10-29T05:23:24.495Z,11.88
2022-10-29T05:25:52.579Z,12.52
2022-10-29T05:28:22.160Z,11.55
2022-10-29T05:30:51.408Z,13.93
2022-10-29T05:36:03.203Z,14.43
2022-10-29T05:38:31.350Z,14.93
2022-10-29T05:41:02.340Z,14.60
2022-10-29T05:43:39.967Z,15.00
2022-10-29T05:46:07.980Z,15.55
2022-10-29T05:48:35.574Z,15.63
2022-10-29T05:51:14.159Z,15.30
2022-10-29T05:53:49.569Z,15.02
2022-10-29T05:56:17.708Z,15.70
2022-10-29T05:58:44.682Z,14.25
2022-10-29T06:01:12.106Z,13.90
2022-10-29T06:03:41.427Z,14.48
2022-10-29T06:08:37.814Z,16.05
2022-10-29T06:11:08.253Z,16.10
2022-10-29T06:13:37.063Z,16.48
2022-10-29T06:16:09.647Z,16.98
2022-10-29T06:18:37.262Z,17.23
2022-10-29T06:21:04.806Z,15.98
2022-10-29T06:23:31.945Z,15.27
2022-10-29T06:26:01.124Z,15.25
2022-10-29T06:28:33.472Z,16.35
2022-10-29T06:31:02.200Z,13.98
2022-10-29T06:33:28.804Z,14.60
2022-10-29T06:36:00.102Z,13.38
2022-10-29T06:38:26.786Z,13.90
2022-10-29T06:40:54.322Z,13.18
2022-10-29T06:43:21.001Z,14.70
2022-10-29T06:45:50.288Z,13.95
2022-10-29T06:48:21.708Z,14.32
2022-10-29T06:50:50.108Z,13.57
2022-10-29T06:53:16.754Z,14.05
2022-10-29T06:55:43.909Z,14.77
2022-10-29T06:58:15.500Z,14.07
2022-10-29T07:00:43.196Z,14.32
2022-10-29T07:03:13.947Z,13.82
2022-10-29T07:05:41.424Z,14.02
2022-10-29T07:08:08.362Z,13.75
2022-10-29T07:10:35.387Z,14.60
2022-10-29T07:13:03.132Z,13.73
2022-10-29T07:15:30.993Z,13.68
2022-10-29T07:18:03.279Z,13.85
2022-10-29T07:20:32.773Z,14.38
2022-10-29T07:23:01.605Z,14.57
2022-10-29T07:25:29.617Z,13.20
2022-10-29T07:28:03.047Z,15.07
2022-10-29T07:30:29.623Z,15.25
2022-10-29T07:32:56.855Z,13.85
2022-10-29T07:35:23.490Z,15.32
2022-10-29T07:37:50.319Z,15.50
2022-10-29T07:40:16.983Z,15.40
2022-10-29T07:42:44.121Z,14.80
2022-10-29T07:45:10.797Z,14.30
2022-10-29T07:47:38.016Z,16.15
2022-10-29T07:50:04.807Z,14.15
2022-10-29T07:52:31.978Z,14.05
2022-10-29T07:55:00.463Z,14.43
2022-10-29T07:57:27.607Z,14.25
2022-10-29T07:59:54.292Z,14.80
2022-10-29T08:02:21.126Z,12.27
2022-10-29T08:04:47.684Z,14.27
2022-10-29T08:07:14.548Z,14.13
2022-10-29T08:09:41.163Z,12.65
2022-10-29T08:12:11.636Z,13.52
2022-10-29T08:14:38.204Z,12.80
2022-10-29T08:17:05.054Z,12.57
2022-10-29T08:19:31.614Z,12.82
2022-10-29T08:21:58.459Z,30.02
2022-10-29T08:24:25.064Z,18.77
2022-10-29T08:26:52.210Z,14.20
2022-10-29T08:29:18.740Z,12.98
2022-10-29T08:31:45.895Z,13.20
2022-10-29T08:34:12.409Z,13.80
2022-10-29T08:36:41.173Z,13.48
2022-10-29T08:39:07.878Z,14.20
2022-10-29T08:41:57.863Z,12.75
2022-10-29T08:44:39.594Z,13.98
2022-10-29T08:47:23.695Z,13.25
2022-10-29T08:49:56.222Z,12.27
2022-10-29T08:52:27.869Z,12.60
2022-10-29T08:55:10.943Z,11.70
2022-10-29T08:57:43.260Z,12.38
2022-10-29T09:00:30.882Z,11.40
2022-10-29T09:03:00.069Z,10.98
2022-10-29T09:05:45.371Z,11.27
2022-10-29T09:08:49.767Z,11.02
2022-10-29T09:11:25.698Z,10.85
2022-10-29T09:14:29.678Z,11.38
2022-10-29T09:17:04.488Z,11.25
2022-10-29T09:19:36.868Z,10.40
2022-10-29T09:22:26.028Z,10.30
2022-10-29T09:25:04.529Z,9.93
2022-10-29T09:27:51.603Z,10.13
2022-10-29T09:30:20.850Z,10.68
2022-10-29T09:35:19.583Z,10.32
2022-10-29T09:37:50.150Z,9.85
2022-10-29T09:40:33.093Z,9.65
2022-10-29T09:43:06.451Z,11.18
2022-10-29T09:45:46.114Z,10.18
2022-10-29T09:48:31.845Z,17.23
2022-10-29T09:51:17.254Z,12.70
2022-10-29T09:53:44.196Z,10.60
2022-10-29T09:56:11.591Z,9.07
2022-10-29T09:58:43.078Z,9.45
2022-10-29T10:01:10.247Z,9.50
2022-10-29T10:03:45.849Z,10.07
2022-10-29T10:06:15.435Z,8.52
2022-10-29T10:11:42.819Z,9.32
2022-10-29T10:14:23.078Z,10.05
2022-10-29T10:17:01.192Z,9.77
2022-10-29T10:19:30.364Z,9.15
2022-10-29T10:24:37.628Z,8.60
2022-10-29T10:27:19.709Z,8.40
2022-10-29T10:30:20.706Z,8.30
2022-10-29T10:32:47.933Z,7.90
2022-10-29T10:35:31.820Z,8.20
2022-10-29T10:38:07.070Z,8.10
2022-10-29T10:40:33.692Z,7.90
2022-10-29T10:43:04.235Z,7.70
2022-10-29T10:45:40.050Z,8.38
2022-10-29T10:48:11.417Z,10.25
2022-10-29T10:50:38.160Z,8.45
2022-10-29T10:53:17.545Z,8.13
2022-10-29T10:55:57.938Z,9.60
2022-10-29T10:58:36.922Z,12.93
2022-10-29T11:01:13.696Z,7.97
2022-10-29T11:03:47.307Z,7.30
2022-10-29T11:06:23.039Z,7.95
2022-10-29T11:08:59.648Z,6.80
2022-10-29T11:11:46.417Z,6.70
2022-10-29T11:14:36.879Z,7.13
2022-10-29T11:17:08.301Z,6.85
2022-10-29T11:19:48.529Z,6.22
2022-10-29T11:22:18.042Z,6.40
2022-10-29T11:24:50.894Z,5.97
2022-10-29T11:27:42.958Z,6.47
2022-10-29T11:30:13.463Z,6.35
2022-10-29T11:32:58.824Z,5.97
2022-10-29T11:35:57.412Z,6.70
2022-10-29T11:38:37.707Z,6.55
2022-10-29T11:41:04.942Z,5.80
2022-10-29T11:43:34.047Z,5.90
2022-10-29T11:46:12.976Z,7.28
2022-10-29T11:49:05.877Z,6.10
2022-10-29T11:51:51.984Z,5.47
2022-10-29T11:54:47.157Z,6.45
2022-10-29T11:57:27.990Z,5.88
2022-10-29T12:00:24.476Z,4.57
2022-10-29T12:03:19.639Z,5.53
2022-10-29T12:05:58.470Z,9.02
2022-10-29T12:08:25.603Z,10.13
2022-10-29T12:11:00.041Z,6.15
2022-10-29T12:13:46.017Z,5.40
2022-10-29T12:16:30.877Z,4.85
2022-10-29T12:19:10.504Z,3.90
2022-10-29T12:24:34.177Z,4.50
2022-10-29T12:27:27.247Z,4.22
2022-10-29T12:29:59.511Z,4.60
2022-10-29T12:33:04.208Z,4.22
2022-10-29T12:35:39.017Z,4.80
2022-10-29T12:38:09.079Z,4.63
2022-10-29T12:40:41.605Z,4.82
2022-10-29T12:43:20.347Z,4.55
2022-10-29T12:46:19.192Z,25.60
2022-10-29T12:48:49.905Z,65.20
2022-10-29T12:51:43.669Z,15.77
2022-10-29T12:54:41.204Z,7.55
2022-10-29T12:57:14.035Z,5.10
2022-10-29T12:59:43.384Z,5.85
2022-10-29T13:02:37.639Z,6.65
2022-10-29T13:05:07.072Z,5.45
2022-10-29T13:07:38.089Z,5.07
2022-10-29T13:10:28.196Z,4.05
2022-10-29T13:12:55.404Z,5.35
2022-10-29T13:15:24.169Z,5.07
2022-10-29T13:17:54.216Z,5.30
2022-10-29T13:20:35.947Z,5.15
2022-10-29T13:23:05.375Z,5.50
2022-10-29T13:25:37.438Z,5.20
2022-10-29T13:28:10.442Z,8.65
2022-10-29T13:30:38.977Z,5.35
2022-10-29T13:33:24.418Z,4.72
2022-10-29T13:36:06.589Z,4.85
2022-10-29T13:39:05.682Z,5.65
2022-10-29T13:41:42.524Z,5.18
2022-10-29T13:44:11.809Z,5.30
2022-10-29T13:47:00.962Z,4.97
2022-10-29T13:52:06.422Z,5.65
2022-10-29T13:54:47.951Z,5.38
2022-10-29T13:57:18.481Z,5.18
2022-10-29T13:59:57.997Z,5.15
2022-10-29T14:02:39.684Z,4.90
2022-10-29T14:05:19.148Z,4.40
2022-10-29T14:08:07.773Z,5.40
2022-10-29T14:10:57.990Z,4.72
2022-10-29T14:13:43.350Z,4.70
2022-10-29T14:16:13.160Z,4.68
2022-10-29T14:18:45.244Z,6.40
2022-10-29T14:21:21.747Z,4.97
2022-10-29T14:23:57.231Z,5.55
2022-10-29T14:26:24.858Z,5.82
2022-10-29T14:28:54.028Z,5.70
2022-10-29T14:31:25.225Z,5.07
2022-10-29T14:33:57.964Z,5.18
2022-10-29T14:36:44.670Z,6.03
2022-10-29T14:39:14.859Z,6.38
2022-10-29T14:41:41.702Z,6.22
2022-10-29T14:44:15.074Z,6.50
2022-10-29T14:46:43.816Z,5.53
2022-10-29T14:49:23.897Z,6.30
2022-10-29T14:52:06.854Z,5.97
2022-10-29T14:54:38.055Z,6.40
2022-10-29T14:57:14.107Z,6.43
2022-10-29T14:59:53.495Z,5.45
2022-10-29T15:02:38.577Z,5.88
2022-10-29T15:05:22.290Z,5.53
2022-10-29T15:07:50.057Z,6.18
2022-10-29T15:10:19.865Z,6.55
2022-10-29T15:12:48.289Z,5.68
2022-10-29T15:15:18.476Z,5.70
2022-10-29T15:17:54.392Z,6.28
2022-10-29T15:20:30.949Z,5.47
2022-10-29T15:22:59.492Z,5.47
2022-10-29T15:25:39.228Z,6.10
2022-10-29T15:28:12.279Z,6.32
2022-10-29T15:30:39.326Z,6.20
2022-10-29T15:33:13.848Z,5.35
2022-10-29T15:35:49.737Z,5.82
2022-10-29T15:38:36.951Z,6.55
2022-10-29T15:41:12.598Z,6.80
2022-10-29T15:43:49.697Z,6.60
2022-10-29T15:46:44.265Z,6.50
2022-10-29T15:49:17.658Z,7.55
2022-10-29T15:51:44.308Z,6.53
2022-10-29T15:54:16.966Z,8.52
2022-10-29T15:56:43.686Z,12.50
2022-10-29T15:59:15.549Z,14.50
2022-10-29T16:01:42.319Z,14.15
2022-10-29T16:04:10.016Z,15.07
2022-10-29T16:06:37.234Z,16.08
2022-10-29T16:09:04.835Z,17.50
2022-10-29T16:11:33.890Z,18.33
2022-10-29T16:14:01.059Z,13.68
2022-10-29T16:16:30.472Z,11.05
2022-10-29T16:18:57.654Z,8.57
2022-10-29T16:21:26.170Z,8.23
2022-10-29T16:23:53.499Z,8.25
2022-10-29T16:26:23.257Z,8.07
2022-10-29T16:28:53.504Z,7.60
2022-10-29T16:31:23.778Z,8.05
2022-10-29T16:33:54.728Z,8.13
2022-10-29T16:36:21.354Z,8.55
2022-10-29T16:38:48.221Z,8.00
2022-10-29T16:41:17.430Z,16.08
2022-10-29T16:46:12.534Z,9.95
2022-10-29T16:48:40.059Z,10.27
2022-10-29T16:51:06.909Z,9.80
2022-10-29T16:53:34.392Z,8.63
2022-10-29T16:56:01.578Z,9.38
2022-10-29T16:58:28.849Z,8.70
2022-10-29T17:01:03.669Z,9.18
2022-10-29T17:03:31.380Z,7.85
2022-10-29T17:06:03.043Z,8.70
2022-10-29T17:08:34.461Z,8.43
2022-10-29T17:11:02.442Z,8.82
2022-10-29T17:13:29.257Z,9.55
2022-10-29T17:15:55.862Z,11.05
2022-10-29T17:18:24.500Z,10.52
2022-10-29T17:20:55.275Z,9.95
2022-10-29T17:23:22.414Z,10.38
2022-10-29T17:25:52.335Z,11.05
2022-10-29T17:28:20.200Z,10.63
2022-10-29T17:30:46.766Z,9.43
2022-10-29T17:33:14.323Z,10.15
2022-10-29T17:35:40.896Z,9.65
2022-10-29T17:38:08.181Z,8.43
2022-10-29T17:40:35.043Z,8.45
2022-10-29T17:43:02.172Z,9.48
2022-10-29T17:45:28.923Z,8.77
2022-10-29T17:47:57.414Z,9.05
2022-10-29T17:50:26.142Z,7.97
2022-10-29T17:52:54.166Z,8.10
2022-10-29T17:55:20.860Z,9.10
2022-10-29T17:57:48.078Z,8.30
2022-10-29T18:00:14.995Z,8.13
2022-10-29T18:02:42.636Z,8.60
2022-10-29T18:05:09.477Z,6.28
2022-10-29T18:07:36.660Z,7.55
2022-10-29T18:10:03.750Z,7.35
2022-10-29T18:12:30.962Z,6.88
2022-10-29T18:14:57.562Z,7.43
2022-10-29T18:17:24.902Z,7.10
2022-10-29T18:19:51.431Z,7.10
2022-10-29T18:22:18.622Z,6.32
2022-10-29T18:24:45.144Z,6.00
2022-10-29T18:27:12.289Z,6.70
2022-10-29T18:29:38.834Z,7.28
2022-10-29T18:32:05.989Z,5.88
2022-10-29T18:34:34.046Z,6.00
2022-10-29T18:37:01.239Z,6.85
2022-10-29T18:39:27.973Z,6.90
2022-10-29T18:41:55.130Z,6.65
2022-10-29T18:44:21.709Z,5.82
2022-10-29T18:46:48.696Z,6.07
2022-10-29T18:49:16.127Z,6.90
2022-10-29T18:51:42.693Z,5.68
2022-10-29T18:54:13.718Z,6.60
2022-10-29T18:56:41.118Z,6.28
2022-10-29T18:59:09.987Z,6.15
2022-10-29T19:01:37.021Z,7.00
2022-10-29T19:04:07.468Z,6.78
2022-10-29T19:06:36.413Z,6.07
2022-10-29T19:09:07.024Z,6.38
2022-10-29T19:11:34.011Z,5.68
2022-10-29T19:14:07.585Z,6.35
2022-10-29T19:16:34.227Z,7.15
2022-10-29T19:21:35.008Z,6.95
2022-10-29T19:26:31.210Z,7.10
2022-10-29T19:29:02.848Z,6.82
2022-10-29T19:31:31.662Z,6.97
2022-10-29T19:34:01.021Z,7.70
2022-10-29T19:36:29.547Z,8.07
2022-10-29T19:38:57.319Z,7.38
2022-10-29T19:41:24.669Z,6.07
2022-10-29T19:43:51.507Z,6.05
2022-10-29T19:46:23.918Z,7.13
2022-10-29T19:48:53.037Z,7.47
2022-10-29T19:51:20.094Z,7.60
2022-10-29T19:53:47.556Z,6.70
2022-10-29T19:56:16.117Z,7.85
2022-10-29T19:58:43.511Z,7.55
2022-10-29T20:01:16.311Z,7.55
2022-10-29T20:03:44.343Z,7.32
2022-10-29T20:06:11.374Z,7.38
2022-10-29T20:08:38.912Z,7.03
2022-10-29T20:11:05.674Z,7.63
2022-10-29T20:13:33.482Z,9.38
2022-10-29T20:16:01.330Z,8.32
2022-10-29T20:18:28.513Z,7.63
2022-10-29T20:20:56.563Z,7.35
2022-10-29T20:23:25.847Z,6.93
2022-10-29T20:25:52.585Z,7.55
2022-10-29T20:28:19.937Z,7.50
